You are listening to:
UUEE Twr/App/Radar - Moscow, Russia

UUEE 241400Z 32006G11MPS 290V350 9999 1600SE SHSN SCT013CB 01/M01 Q1018 R88/290051 NOSIG

If stream doesn't start automatically press the play button
If stream stops then reload player then press play